createdAt,value
2019-06-26T00:00:30.791Z,8.75
2019-06-26T00:02:59.227Z,8.03
2019-06-26T00:05:27.741Z,6.75
2019-06-26T00:07:57.669Z,5.97
2019-06-26T00:10:26.290Z,8.78
2019-06-26T00:12:54.811Z,7.08
2019-06-26T00:15:23.282Z,4.78
2019-06-26T00:17:52.546Z,6.50
2019-06-26T00:20:22.118Z,8.48
2019-06-26T00:22:50.624Z,7.95
2019-06-26T00:25:19.111Z,11.18
2019-06-26T00:27:47.714Z,5.17
2019-06-26T00:30:16.494Z,5.03
2019-06-26T00:32:44.979Z,7.37
2019-06-26T00:35:13.629Z,11.05
2019-06-26T00:37:43.722Z,10.10
2019-06-26T00:40:17.443Z,9.48
2019-06-26T00:42:47.527Z,6.58
2019-06-26T00:45:16.599Z,5.95
2019-06-26T00:47:46.977Z,9.43
2019-06-26T00:50:15.737Z,8.10
2019-06-26T00:52:47.110Z,8.08
2019-06-26T00:55:17.816Z,11.35
2019-06-26T00:57:46.318Z,8.80
2019-06-26T01:00:15.846Z,7.72
2019-06-26T01:02:44.367Z,6.97
2019-06-26T01:05:13.830Z,7.05
2019-06-26T01:07:42.333Z,9.15
2019-06-26T01:10:12.354Z,8.98
2019-06-26T01:12:40.855Z,10.80
2019-06-26T01:15:11.973Z,5.75
2019-06-26T01:17:40.479Z,7.33
2019-06-26T01:20:09.393Z,6.10
2019-06-26T01:22:41.408Z,6.60
2019-06-26T01:25:10.050Z,8.85
2019-06-26T01:27:38.664Z,6.55
2019-06-26T01:30:08.046Z,17.10
2019-06-26T01:32:36.574Z,11.10
2019-06-26T01:35:12.825Z,7.72
2019-06-26T01:37:41.382Z,6.58
2019-06-26T01:40:10.234Z,13.43
2019-06-26T01:42:38.680Z,10.30
2019-06-26T01:45:10.037Z,8.35
2019-06-26T01:47:38.577Z,8.38
2019-06-26T01:50:07.804Z,6.10
2019-06-26T01:52:38.568Z,11.73
2019-06-26T01:55:10.010Z,13.70
2019-06-26T01:57:38.563Z,8.13
2019-06-26T02:00:11.778Z,7.90
2019-06-26T02:02:40.282Z,6.80
2019-06-26T02:05:09.198Z,10.93
2019-06-26T02:07:37.868Z,8.83
2019-06-26T02:10:15.600Z,8.60
2019-06-26T02:12:44.206Z,7.20
2019-06-26T02:15:13.229Z,9.43
2019-06-26T02:17:43.399Z,7.50
2019-06-26T02:20:12.339Z,7.95
2019-06-26T02:22:41.701Z,7.55
2019-06-26T02:25:10.390Z,10.48
2019-06-26T02:27:42.187Z,10.60
2019-06-26T02:30:14.367Z,9.18
2019-06-26T02:32:42.919Z,8.65
2019-06-26T02:35:11.674Z,5.80
2019-06-26T02:37:40.286Z,10.43
2019-06-26T02:40:12.429Z,11.10
2019-06-26T02:42:41.182Z,10.48
2019-06-26T02:45:12.311Z,7.37
2019-06-26T02:47:41.952Z,8.40
2019-06-26T02:50:11.428Z,11.73
2019-06-26T02:52:39.941Z,8.28
2019-06-26T02:55:08.565Z,9.38
2019-06-26T02:57:37.143Z,12.47
2019-06-26T03:00:08.819Z,10.98
2019-06-26T03:02:37.412Z,8.10
2019-06-26T03:05:09.022Z,11.03
2019-06-26T03:07:37.281Z,12.40
2019-06-26T03:10:07.965Z,12.28
2019-06-26T03:12:36.489Z,10.90
2019-06-26T03:15:09.967Z,8.53
2019-06-26T03:17:54.162Z,9.93
2019-06-26T03:20:47.321Z,13.05
2019-06-26T03:23:38.762Z,22.85
2019-06-26T04:04:46.162Z,9.25
2019-06-26T04:13:55.068Z,9.18
2019-06-26T04:22:21.373Z,8.10
2019-06-26T04:24:49.908Z,12.80
2019-06-26T04:27:18.555Z,14.40
2019-06-26T04:29:48.337Z,11.95
2019-06-26T04:32:16.872Z,19.83
2019-06-26T04:34:45.493Z,13.03
2019-06-26T04:37:15.627Z,13.83
2019-06-26T04:39:45.787Z,16.20
2019-06-26T04:42:14.387Z,15.03
2019-06-26T04:45:02.333Z,13.75
2019-06-26T04:47:32.680Z,14.70
2019-06-26T04:50:01.185Z,12.98
2019-06-26T04:52:29.744Z,12.85
2019-06-26T04:54:58.288Z,14.25
2019-06-26T04:57:27.368Z,14.83
2019-06-26T04:59:55.907Z,11.22
2019-06-26T05:02:24.442Z,10.98
2019-06-26T05:05:00.813Z,12.80
2019-06-26T05:07:29.309Z,15.72
2019-06-26T05:10:08.938Z,13.08
2019-06-26T05:12:34.994Z,12.68
2019-06-26T05:15:05.330Z,17.75
2019-06-26T05:17:33.937Z,16.07
2019-06-26T05:20:54.640Z,14.60
2019-06-26T05:23:02.431Z,12.67
2019-06-26T05:25:31.123Z,11.80
2019-06-26T05:27:59.739Z,23.30
2019-06-26T05:30:30.490Z,12.40
2019-06-26T05:32:59.450Z,15.05
2019-06-26T05:35:28.101Z,12.88
2019-06-26T05:37:57.223Z,15.93
2019-06-26T05:40:25.802Z,17.27
2019-06-26T05:42:54.435Z,19.07
2019-06-26T05:45:23.451Z,17.50
2019-06-26T05:47:52.095Z,18.10
2019-06-26T05:50:22.869Z,17.65
2019-06-26T05:52:53.203Z,17.75
2019-06-26T05:55:23.618Z,16.45
2019-06-26T05:57:55.087Z,16.25
2019-06-26T06:00:24.469Z,17.40
2019-06-26T06:02:54.095Z,16.10
2019-06-26T06:05:42.269Z,17.15
2019-06-26T06:08:11.127Z,16.60
2019-06-26T06:10:46.724Z,16.32
2019-06-26T06:13:15.334Z,13.90
2019-06-26T06:16:00.748Z,18.23
2019-06-26T06:18:30.440Z,15.63
2019-06-26T06:23:51.079Z,16.17
2019-06-26T06:26:19.621Z,19.52
2019-06-26T06:28:48.312Z,16.15
2019-06-26T06:31:21.142Z,13.45
2019-06-26T06:33:56.765Z,16.70
2019-06-26T06:36:25.445Z,16.20
2019-06-26T06:38:55.683Z,19.65
2019-06-26T06:41:24.191Z,18.60
2019-06-26T06:43:53.351Z,17.65
2019-06-26T06:46:21.861Z,13.58
2019-06-26T06:48:50.430Z,20.88
2019-06-26T06:51:19.922Z,20.88
2019-06-26T06:53:48.420Z,14.87
2019-06-26T06:56:17.590Z,17.23
2019-06-26T06:58:46.101Z,17.95
2019-06-26T07:01:14.594Z,15.83
2019-06-26T07:03:43.097Z,18.23
2019-06-26T07:06:11.616Z,16.17
2019-06-26T07:08:44.542Z,21.60
2019-06-26T07:11:12.940Z,24.05
2019-06-26T07:13:42.438Z,20.23
2019-06-26T07:16:10.918Z,18.52
2019-06-26T07:18:39.440Z,18.80
2019-06-26T07:21:08.034Z,18.90
2019-06-26T07:23:36.559Z,14.00
2019-06-26T07:26:05.032Z,20.32
2019-06-26T07:28:33.646Z,21.23
2019-06-26T07:31:02.194Z,16.75
2019-06-26T07:33:30.788Z,14.58
2019-06-26T07:35:59.499Z,17.00
2019-06-26T07:38:27.968Z,14.98
2019-06-26T07:40:56.432Z,18.87
2019-06-26T07:43:24.902Z,15.03
2019-06-26T07:45:53.373Z,14.53
2019-06-26T07:48:21.914Z,13.35
2019-06-26T07:50:50.462Z,14.60
2019-06-26T07:53:19.054Z,17.75
2019-06-26T07:55:47.528Z,22.13
2019-06-26T07:58:16.138Z,21.27
2019-06-26T08:00:44.584Z,17.55
2019-06-26T08:03:13.140Z,15.32
2019-06-26T08:05:43.079Z,17.02
2019-06-26T08:08:14.581Z,13.50
2019-06-26T08:10:42.548Z,11.95
2019-06-26T08:13:11.069Z,13.65
2019-06-26T08:15:39.489Z,13.95
2019-06-26T08:18:08.009Z,19.42
2019-06-26T08:20:51.594Z,13.38
2019-06-26T08:23:06.598Z,13.20
2019-06-26T08:25:35.034Z,10.32
2019-06-26T08:28:04.418Z,13.10
2019-06-26T08:30:32.918Z,15.72
2019-06-26T08:33:01.407Z,7.92
2019-06-26T08:35:29.868Z,11.68
2019-06-26T08:38:09.414Z,14.40
2019-06-26T08:40:28.685Z,13.28
2019-06-26T08:42:57.221Z,10.98
2019-06-26T08:45:25.666Z,9.40
2019-06-26T08:47:55.624Z,8.35
2019-06-26T08:50:24.358Z,12.18
2019-06-26T08:52:54.582Z,8.50
2019-06-26T08:55:23.067Z,9.63
2019-06-26T08:57:51.541Z,8.75
2019-06-26T09:00:20.355Z,7.42
2019-06-26T09:02:48.817Z,9.65
2019-06-26T09:05:17.522Z,11.10
2019-06-26T09:07:45.978Z,8.08
2019-06-26T09:10:14.912Z,8.73
2019-06-26T09:12:43.347Z,10.82
2019-06-26T09:15:12.136Z,4.90
2019-06-26T09:17:40.619Z,8.60
2019-06-26T09:20:11.887Z,10.32
2019-06-26T09:22:40.383Z,7.08
2019-06-26T09:25:20.813Z,7.45
2019-06-26T09:27:39.340Z,7.22
2019-06-26T09:30:08.948Z,5.47
2019-06-26T09:32:37.394Z,6.85
2019-06-26T09:35:07.906Z,9.03
2019-06-26T09:37:36.443Z,8.43
2019-06-26T09:40:06.642Z,7.28
2019-06-26T09:42:35.078Z,10.03
2019-06-26T09:45:04.587Z,9.25
2019-06-26T09:47:33.034Z,12.10
2019-06-26T09:50:01.939Z,8.88
2019-06-26T09:52:30.578Z,7.12
2019-06-26T09:55:00.627Z,8.58
2019-06-26T09:57:29.176Z,6.47
2019-06-26T09:59:58.830Z,8.78
2019-06-26T10:02:27.262Z,9.98
2019-06-26T10:04:55.731Z,6.95
2019-06-26T10:07:24.164Z,9.23
2019-06-26T10:09:52.713Z,6.45
2019-06-26T10:12:21.248Z,8.78
2019-06-26T10:14:52.713Z,6.50
2019-06-26T10:17:21.190Z,10.65
2019-06-26T10:19:49.651Z,11.43
2019-06-26T10:22:19.225Z,6.37
2019-06-26T10:24:47.715Z,8.93
2019-06-26T10:27:16.169Z,7.58
2019-06-26T10:29:44.615Z,15.55
2019-06-26T10:32:13.171Z,4.80
2019-06-26T10:34:42.022Z,6.15
2019-06-26T10:37:10.494Z,7.00
2019-06-26T10:39:38.982Z,7.95
2019-06-26T10:42:07.430Z,10.18
2019-06-26T10:44:35.874Z,9.58
2019-06-26T10:47:04.415Z,7.05
2019-06-26T10:49:32.920Z,10.20
2019-06-26T10:52:04.334Z,6.40
2019-06-26T10:54:35.450Z,6.80
2019-06-26T10:57:05.465Z,6.80
2019-06-26T10:59:35.287Z,6.53
2019-06-26T11:02:18.791Z,6.70
2019-06-26T11:04:57.278Z,5.95
2019-06-26T11:07:31.455Z,5.15
2019-06-26T11:10:01.686Z,6.90
2019-06-26T11:12:33.577Z,6.25
2019-06-26T11:15:07.639Z,5.45
2019-06-26T11:17:39.530Z,6.53
2019-06-26T11:20:36.533Z,8.68
2019-06-26T11:23:15.982Z,8.55
2019-06-26T11:25:47.397Z,9.17
2019-06-26T11:28:24.567Z,11.85
2019-06-26T11:30:55.526Z,11.83
2019-06-26T11:33:37.462Z,9.60
2019-06-26T11:36:07.947Z,8.73
2019-06-26T11:41:10.465Z,12.10
2019-06-26T11:43:48.811Z,9.73
2019-06-26T11:46:33.528Z,13.00
2019-06-26T11:49:08.144Z,6.25
2019-06-26T11:51:32.360Z,8.73
2019-06-26T11:54:01.028Z,12.00
2019-06-26T11:56:44.114Z,7.85
2019-06-26T11:59:14.213Z,12.40
2019-06-26T12:01:43.113Z,12.03
2019-06-26T12:07:07.022Z,10.30
2019-06-26T12:09:45.250Z,11.15
2019-06-26T12:12:37.096Z,11.28
2019-06-26T12:15:14.405Z,13.15
2019-06-26T12:18:01.471Z,9.53
2019-06-26T12:20:32.849Z,7.47
2019-06-26T12:23:04.356Z,10.88
2019-06-26T12:28:31.883Z,9.10
2019-06-26T12:31:07.541Z,12.10
2019-06-26T12:33:38.121Z,17.62
2019-06-26T12:36:11.269Z,13.78
2019-06-26T12:38:59.529Z,15.23
2019-06-26T12:41:36.359Z,15.58
2019-06-26T12:44:10.820Z,15.83
2019-06-26T12:47:00.070Z,22.87
2019-06-26T12:50:04.010Z,17.55
2019-06-26T12:52:48.540Z,17.37
2019-06-26T12:55:27.496Z,15.25
2019-06-26T12:58:19.716Z,10.28
2019-06-26T13:00:37.812Z,12.05
2019-06-26T13:03:09.229Z,11.33
2019-06-26T13:05:39.399Z,11.48
2019-06-26T13:10:49.409Z,9.50
2019-06-26T13:13:16.044Z,8.33
2019-06-26T13:15:52.847Z,10.95
2019-06-26T13:18:23.563Z,10.72
2019-06-26T13:20:53.702Z,8.60
2019-06-26T13:23:29.432Z,8.43
2019-06-26T13:26:09.658Z,11.57
2019-06-26T13:28:42.821Z,8.18
2019-06-26T13:31:11.344Z,7.83
2019-06-26T13:33:44.271Z,8.00
2019-06-26T13:36:18.517Z,10.72
2019-06-26T13:38:47.030Z,10.90
2019-06-26T13:41:15.576Z,9.08
2019-06-26T13:43:50.800Z,10.00
2019-06-26T13:46:24.333Z,10.38
2019-06-26T13:49:03.203Z,8.30
2019-06-26T13:51:35.489Z,14.18
2019-06-26T13:54:05.792Z,5.35
2019-06-26T13:56:55.287Z,9.45
2019-06-26T13:59:23.847Z,7.95
2019-06-26T14:02:13.404Z,4.60
2019-06-26T14:08:06.479Z,8.33
2019-06-26T14:14:56.126Z,4.78
2019-06-26T14:17:34.347Z,10.18
2019-06-26T14:19:54.793Z,8.78
2019-06-26T14:22:52.651Z,9.03
2019-06-26T14:31:22.062Z,6.55
2019-06-26T14:34:42.707Z,8.23
2019-06-26T14:37:14.768Z,6.22
2019-06-26T14:39:49.340Z,8.88
2019-06-26T14:42:25.736Z,7.78
2019-06-26T14:45:00.299Z,8.28
2019-06-26T14:50:39.523Z,9.35
2019-06-26T14:53:22.570Z,16.35
2019-06-26T14:55:53.320Z,10.00
2019-06-26T14:58:36.536Z,7.92
2019-06-26T15:07:30.798Z,13.20
2019-06-26T15:10:23.091Z,13.35
2019-06-26T15:12:59.712Z,14.10
2019-06-26T15:15:49.800Z,14.33
2019-06-26T15:18:24.250Z,13.53
2019-06-26T15:26:44.302Z,23.22
2019-06-26T15:32:52.287Z,14.13
2019-06-26T15:39:03.393Z,10.48
2019-06-26T15:44:27.496Z,9.55
2019-06-26T15:47:00.755Z,10.90
2019-06-26T15:52:43.874Z,8.60
2019-06-26T15:55:20.874Z,6.87
2019-06-26T15:57:55.432Z,10.30
2019-06-26T16:00:36.398Z,10.35
2019-06-26T16:03:29.475Z,13.22
2019-06-26T16:06:08.465Z,6.87
2019-06-26T16:11:53.981Z,7.12
2019-06-26T16:15:11.079Z,14.00
2019-06-26T16:20:06.444Z,9.55
2019-06-26T16:25:24.627Z,7.83
2019-06-26T16:28:05.135Z,11.83
2019-06-26T16:30:34.586Z,7.28
2019-06-26T16:33:13.876Z,12.20
2019-06-26T16:35:46.215Z,11.57
2019-06-26T16:44:33.699Z,7.85
2019-06-26T16:46:59.220Z,13.88
2019-06-26T16:49:30.937Z,9.78
2019-06-26T16:52:06.064Z,8.20
2019-06-26T16:54:47.254Z,11.35
2019-06-26T16:58:30.655Z,11.22
2019-06-26T17:03:04.002Z,7.15
2019-06-26T17:22:40.253Z,5.87
2019-06-26T17:25:09.649Z,6.75
2019-06-26T17:27:38.119Z,16.73
2019-06-26T17:30:07.988Z,8.38
2019-06-26T17:32:36.421Z,10.03
2019-06-26T17:35:07.631Z,9.28
2019-06-26T17:37:38.947Z,8.85
2019-06-26T17:40:08.537Z,10.78
2019-06-26T17:42:36.988Z,7.13
2019-06-26T17:45:09.808Z,7.10
2019-06-26T17:47:38.344Z,11.65
2019-06-26T17:50:07.605Z,8.98
2019-06-26T17:52:38.502Z,7.95
2019-06-26T17:55:10.179Z,11.48
2019-06-26T17:57:38.722Z,8.73
2019-06-26T18:00:08.550Z,6.90
2019-06-26T18:02:37.010Z,7.87
2019-06-26T18:05:06.084Z,7.17
2019-06-26T18:07:34.587Z,11.00
2019-06-26T18:10:03.758Z,15.70
2019-06-26T18:12:35.229Z,11.55
2019-06-26T18:15:07.614Z,8.78
2019-06-26T18:17:36.099Z,10.03
2019-06-26T18:20:06.499Z,7.90
2019-06-26T18:22:35.158Z,9.23
2019-06-26T18:25:04.372Z,7.47
2019-06-26T18:27:32.894Z,8.93
2019-06-26T18:30:04.293Z,11.38
2019-06-26T18:32:32.781Z,5.97
2019-06-26T18:35:01.221Z,9.78
2019-06-26T18:37:29.681Z,12.65
2019-06-26T18:39:58.141Z,5.80
2019-06-26T18:42:26.700Z,8.53
2019-06-26T18:44:55.172Z,5.87
2019-06-26T18:47:23.615Z,8.35
2019-06-26T18:49:52.095Z,7.20
2019-06-26T18:52:20.556Z,6.05
2019-06-26T18:54:49.111Z,7.95
2019-06-26T18:57:18.932Z,8.30
2019-06-26T18:59:49.377Z,11.15
2019-06-26T19:02:19.486Z,11.22
2019-06-26T19:04:49.622Z,7.40
2019-06-26T19:07:19.146Z,8.85
2019-06-26T19:09:49.249Z,5.08
2019-06-26T19:12:20.557Z,8.50
2019-06-26T19:14:50.598Z,6.83
2019-06-26T19:17:19.082Z,7.45
2019-06-26T19:19:49.032Z,6.62
2019-06-26T19:22:17.593Z,7.50
2019-06-26T19:24:47.744Z,10.08
2019-06-26T19:27:20.489Z,6.17
2019-06-26T19:29:49.066Z,7.47
2019-06-26T19:32:17.682Z,9.10
2019-06-26T19:34:46.248Z,12.25
2019-06-26T19:37:14.875Z,7.12
2019-06-26T19:39:43.403Z,7.33
2019-06-26T19:42:11.953Z,10.43
2019-06-26T19:44:40.582Z,11.88
2019-06-26T19:47:09.190Z,12.58
2019-06-26T19:49:41.306Z,8.58
2019-06-26T19:52:09.756Z,9.65
2019-06-26T19:54:38.440Z,18.32
2019-06-26T19:57:06.955Z,17.37
2019-06-26T19:59:35.461Z,11.28
2019-06-26T20:02:06.197Z,13.78
2019-06-26T20:04:34.578Z,13.10
2019-06-26T20:07:03.108Z,12.53
2019-06-26T20:09:44.910Z,14.18
2019-06-26T20:12:23.081Z,9.75
2019-06-26T20:14:58.587Z,10.18
2019-06-26T20:18:18.199Z,9.35
2019-06-26T20:20:09.901Z,13.88
2019-06-26T20:22:56.180Z,7.58
2019-06-26T20:25:45.075Z,11.85
2019-06-26T20:28:21.947Z,9.15
2019-06-26T20:31:14.864Z,13.45
2019-06-26T20:36:44.018Z,22.67
2019-06-26T20:39:12.632Z,13.08
2019-06-26T20:41:41.302Z,19.52
2019-06-26T20:44:11.611Z,17.57
2019-06-26T20:46:43.004Z,15.98
2019-06-26T20:49:11.530Z,11.65
2019-06-26T20:51:43.065Z,14.90
2019-06-26T20:54:11.591Z,11.97
2019-06-26T20:56:45.172Z,16.07
2019-06-26T20:59:13.694Z,13.43
2019-06-26T21:01:42.242Z,14.83
2019-06-26T21:04:27.940Z,12.93
2019-06-26T21:06:56.385Z,14.07
2019-06-26T21:09:37.059Z,13.40
2019-06-26T21:12:19.153Z,12.13
2019-06-26T21:14:46.697Z,12.15
2019-06-26T21:17:15.155Z,12.05
2019-06-26T21:19:43.625Z,12.82
2019-06-26T21:22:12.082Z,14.93
2019-06-26T21:24:40.584Z,9.65
2019-06-26T21:27:09.021Z,12.88
2019-06-26T21:29:37.605Z,10.00
2019-06-26T21:32:07.619Z,9.40
2019-06-26T21:34:37.190Z,10.35
2019-06-26T21:37:05.736Z,12.58
2019-06-26T21:39:34.256Z,10.30
2019-06-26T21:42:02.806Z,12.40
2019-06-26T21:44:31.351Z,15.65
2019-06-26T21:47:02.492Z,11.43
2019-06-26T21:49:30.990Z,18.10
2019-06-26T21:51:59.419Z,15.32
2019-06-26T21:54:27.905Z,15.38
2019-06-26T21:56:56.417Z,17.27
2019-06-26T21:59:24.867Z,11.35
2019-06-26T22:01:53.539Z,11.75
2019-06-26T22:04:22.154Z,14.50
2019-06-26T22:06:50.740Z,9.03
2019-06-26T22:09:19.261Z,11.90
2019-06-26T22:11:47.825Z,12.05
2019-06-26T22:14:16.373Z,12.95
2019-06-26T22:16:44.895Z,14.28
2019-06-26T22:19:13.391Z,8.43
2019-06-26T22:21:41.914Z,15.40
2019-06-26T22:24:10.504Z,10.13
2019-06-26T22:26:38.911Z,12.80
2019-06-26T22:29:07.454Z,13.43
2019-06-26T22:31:35.943Z,21.10
2019-06-26T22:34:04.540Z,15.58
2019-06-26T22:36:33.000Z,15.43
2019-06-26T22:39:01.489Z,13.72
2019-06-26T22:41:29.937Z,11.60
2019-06-26T22:43:58.406Z,14.20
2019-06-26T22:46:26.915Z,16.07
2019-06-26T22:48:57.010Z,13.43
2019-06-26T22:51:25.470Z,12.63
2019-06-26T22:53:56.819Z,10.80
2019-06-26T22:56:25.775Z,13.32
2019-06-26T22:58:54.246Z,16.20
2019-06-26T23:01:22.752Z,18.27
2019-06-26T23:03:51.283Z,16.20
2019-06-26T23:06:19.806Z,15.85
2019-06-26T23:08:48.289Z,17.57
2019-06-26T23:11:16.788Z,13.25
2019-06-26T23:13:45.287Z,16.15
2019-06-26T23:16:13.754Z,9.05
2019-06-26T23:18:42.239Z,11.73
2019-06-26T23:21:10.683Z,11.18
2019-06-26T23:23:39.139Z,13.53
2019-06-26T23:26:22.937Z,10.38
2019-06-26T23:28:37.933Z,12.18
2019-06-26T23:31:06.474Z,14.95
2019-06-26T23:33:34.947Z,13.30
2019-06-26T23:36:03.402Z,13.90
2019-06-26T23:38:31.885Z,20.37
2019-06-26T23:41:00.364Z,14.83
2019-06-26T23:43:28.808Z,16.90
2019-06-26T23:45:57.333Z,12.00
2019-06-26T23:48:25.812Z,17.12
2019-06-26T23:50:54.345Z,15.32
2019-06-26T23:53:22.833Z,20.02
2019-06-26T23:56:06.572Z,14.40
2019-06-26T23:58:34.996Z,16.25
